Time;durP1;ratioP1;P1;durP2;ratioP2;P2;SDS_P1;SDS_P2;PMS_P1;PMS_P2;Temp;Humidity;BMP_temperature;BMP_pressure;BME280_temperature;BME280_humidity;BME280_pressure;Samples;Min_cycle;Max_cycle;Signal;HPM_P1;HPM_P2
2023/06/01 00:02:14;;;;;;;8.85;4.40;;;;;;;17.03;60.12;99915.59;4275605;33;20169;-82
2023/06/01 00:04:40;;;;;;;5.72;3.65;;;;;;;17.09;60.13;99917.06;4275022;33;20440;-82
2023/06/01 00:07:10;;;;;;;7.18;4.28;;;;;;;16.96;60.12;99911.63;4287446;33;20139;-82
2023/06/01 00:09:35;;;;;;;6.97;3.97;;;;;;;16.96;60.12;99908.97;4275509;33;20109;-82
2023/06/01 00:12:01;;;;;;;5.95;3.35;;;;;;;16.83;60.11;99902.72;4287280;33;20378;-82
2023/06/01 00:14:26;;;;;;;7.93;4.28;;;;;;;16.84;60.11;99901.78;4288359;33;20093;-82
2023/06/01 00:16:51;;;;;;;7.68;3.70;;;;;;;16.90;60.12;99905.84;4286524;33;28060;-82
2023/06/01 00:19:17;;;;;;;7.30;3.62;;;;;;;16.93;60.12;99900.44;4287639;33;36902;-82
2023/06/01 00:21:43;;;;;;;8.20;3.35;;;;;;;17.06;60.12;99898.81;4263526;33;20100;-82
2023/06/01 00:24:08;;;;;;;6.18;4.25;;;;;;;17.05;60.13;99905.00;4288418;33;20095;-82
2023/06/01 00:26:34;;;;;;;9.45;4.35;;;;;;;16.82;60.11;99896.63;4275166;33;20128;-81
2023/06/01 00:28:59;;;;;;;5.78;3.70;;;;;;;16.69;60.10;99892.09;4287083;33;20101;-81
2023/06/01 00:31:25;;;;;;;8.65;3.47;;;;;;;16.61;60.10;99902.16;4286968;33;20097;-81
2023/06/01 00:33:51;;;;;;;4.82;3.42;;;;;;;16.66;60.10;99897.50;4288414;33;20191;-82
2023/06/01 00:36:16;;;;;;;7.50;3.55;;;;;;;16.70;60.11;99901.69;4268941;33;20692;-82
2023/06/01 00:38:42;;;;;;;6.10;3.75;;;;;;;16.67;60.10;99893.97;4287751;33;20585;-81
2023/06/01 00:41:07;;;;;;;10.05;4.05;;;;;;;16.87;60.12;99899.84;4286615;33;21570;-82
2023/06/01 00:43:32;;;;;;;6.95;3.40;;;;;;;16.73;60.11;99891.84;4286715;33;20140;-81
2023/06/01 00:45:58;;;;;;;5.28;3.50;;;;;;;16.84;60.11;99894.75;4286987;33;20199;-81
2023/06/01 00:48:23;;;;;;;8.55;3.85;;;;;;;16.30;60.08;99895.91;4273848;33;20107;-82
2023/06/01 00:50:49;;;;;;;6.68;3.45;;;;;;;16.26;60.08;99899.63;4281823;33;174138;-82
2023/06/01 00:53:17;;;;;;;7.65;3.40;;;;;;;16.14;60.07;99895.03;4286726;33;20104;-82
2023/06/01 00:55:43;;;;;;;5.85;3.05;;;;;;;16.39;60.08;99890.19;4286957;33;20127;-83
2023/06/01 00:58:08;;;;;;;6.43;3.35;;;;;;;16.37;60.08;99899.09;4286631;33;20147;-82
2023/06/01 01:00:33;;;;;;;5.60;3.28;;;;;;;16.35;60.08;99896.53;4286070;33;35783;-82
2023/06/01 01:03:07;;;;;;;5.87;3.62;;;;;;;16.13;60.07;99898.59;4286848;33;20421;-82
2023/06/01 01:05:33;;;;;;;6.93;3.72;;;;;;;15.85;60.05;99891.28;4275892;33;20126;-82
2023/06/01 01:08:37;;;;;;;6.12;2.90;;;;;;;16.09;60.07;99884.78;4274426;33;20447;-82
2023/06/01 01:11:12;;;;;;;6.22;3.42;;;;;;;16.22;60.07;99885.81;4287905;33;20093;-82
2023/06/01 01:13:47;;;;;;;6.72;3.45;;;;;;;16.06;60.07;99886.69;4274451;33;20124;-82
2023/06/01 01:16:29;;;;;;;5.57;3.35;;;;;;;15.89;60.06;99891.06;4274624;33;20109;-81
2023/06/01 01:19:16;;;;;;;5.60;3.05;;;;;;;15.89;60.06;99884.97;4286339;33;20112;-82
2023/06/01 01:21:42;;;;;;;5.80;3.28;;;;;;;15.79;60.05;99881.09;4286638;33;20093;-81
2023/06/01 01:24:23;;;;;;;6.15;3.10;;;;;;;15.77;60.05;99889.06;4273243;33;20089;-82
2023/06/01 01:27:05;;;;;;;4.60;2.62;;;;;;;15.71;60.05;99884.13;4287571;33;20734;-83
2023/06/01 01:29:31;;;;;;;6.45;3.72;;;;;;;15.69;60.04;99885.13;4286219;33;20104;-82
2023/06/01 01:31:57;;;;;;;6.65;3.65;;;;;;;15.70;60.04;99876.34;4274087;33;20475;-82
2023/06/01 01:34:22;;;;;;;5.10;3.00;;;;;;;15.64;60.05;99878.34;4274654;33;20140;-81
2023/06/01 01:36:47;;;;;;;5.43;4.12;;;;;;;15.58;60.04;99883.88;4273402;33;27760;-82
2023/06/01 01:39:13;;;;;;;6.78;3.58;;;;;;;15.75;60.05;99882.19;4286034;33;20595;-82
2023/06/01 01:41:38;;;;;;;6.10;3.17;;;;;;;15.73;60.05;99887.53;4273596;33;20153;-82
2023/06/01 01:44:04;;;;;;;8.77;3.37;;;;;;;15.73;60.05;99886.69;4286971;33;20152;-82
2023/06/01 01:46:30;;;;;;;7.25;3.33;;;;;;;15.44;60.03;99888.97;4286043;33;20096;-82
2023/06/01 01:49:18;;;;;;;5.43;3.37;;;;;;;15.65;60.05;99882.69;4286103;33;20131;-82
2023/06/01 01:51:50;;;;;;;5.55;3.25;;;;;;;15.52;60.03;99883.31;4285807;33;20364;-82
2023/06/01 01:54:17;;;;;;;8.30;3.80;;;;;;;15.58;60.04;99889.13;4285776;33;20155;-82
2023/06/01 01:56:42;;;;;;;11.75;3.40;;;;;;;15.53;60.03;99878.00;4273877;33;20113;-82
2023/06/01 01:59:08;;;;;;;7.28;3.35;;;;;;;15.45;60.03;99879.31;4274141;33;20108;-80
2023/06/01 02:01:33;;;;;;;5.15;2.90;;;;;;;15.38;60.03;99878.78;4276414;33;20133;-82
2023/06/01 02:04:07;;;;;;;7.35;3.47;;;;;;;15.52;60.03;99880.69;4288195;33;20168;-83
2023/06/01 02:06:33;;;;;;;8.70;3.62;;;;;;;15.32;60.03;99876.44;4287360;33;30273;-82
2023/06/01 02:08:58;;;;;;;8.75;2.87;;;;;;;15.52;60.04;99873.69;4287094;33;31085;-81
2023/06/01 02:11:24;;;;;;;5.05;3.28;;;;;;;15.51;60.04;99873.75;4287866;33;20768;-81
2023/06/01 02:13:50;;;;;;;6.30;3.05;;;;;;;15.49;60.04;99876.47;4276323;33;20493;-82
2023/06/01 02:16:15;;;;;;;6.40;3.22;;;;;;;15.44;60.04;99869.75;4287060;33;35121;-82
2023/06/01 02:18:45;;;;;;;6.82;2.90;;;;;;;15.48;60.04;99871.28;4276171;33;20193;-82
2023/06/01 02:21:11;;;;;;;5.70;3.25;;;;;;;15.30;60.02;99873.03;4288088;33;20113;-81
2023/06/01 02:23:39;;;;;;;6.70;3.60;;;;;;;15.22;60.02;99868.19;4288373;33;20117;-82
2023/06/01 02:26:05;;;;;;;10.40;3.78;;;;;;;15.17;60.03;99871.97;4288532;33;20116;-83
2023/06/01 02:28:30;;;;;;;12.93;3.45;;;;;;;15.23;60.02;99866.41;4288383;33;20155;-82
2023/06/01 02:30:56;;;;;;;7.03;3.15;;;;;;;15.11;60.02;99870.47;4288243;33;20384;-83
2023/06/01 02:33:24;;;;;;;6.57;3.40;;;;;;;15.08;60.01;99861.91;4276250;33;20089;-83
2023/06/01 02:35:50;;;;;;;7.00;3.33;;;;;;;15.44;60.03;99859.25;4288440;33;20117;-83
2023/06/01 02:38:15;;;;;;;5.05;3.08;;;;;;;15.14;60.01;99857.25;4276283;33;20217;-83
2023/06/01 02:40:41;;;;;;;4.87;3.33;;;;;;;15.14;60.01;99854.63;4275702;33;32420;-83
2023/06/01 02:43:06;;;;;;;5.85;3.20;;;;;;;15.02;60.02;99865.69;4288184;33;20145;-83
2023/06/01 02:45:32;;;;;;;6.32;3.45;;;;;;;15.09;60.02;99861.84;4287486;33;36330;-83
2023/06/01 02:47:57;;;;;;;9.32;4.30;;;;;;;15.14;60.02;99857.25;4288196;33;20132;-83
2023/06/01 02:50:22;;;;;;;6.40;3.37;;;;;;;14.93;60.00;99856.50;4275367;33;31268;-82
2023/06/01 02:52:48;;;;;;;9.05;2.80;;;;;;;14.95;60.01;99856.44;4289462;33;20141;-83
2023/06/01 02:55:13;;;;;;;9.85;3.28;;;;;;;15.00;60.01;99859.66;4288150;33;20101;-83
2023/06/01 02:57:39;;;;;;;6.25;2.80;;;;;;;15.03;60.02;99863.00;4277156;33;20101;-85
2023/06/01 03:00:15;;;;;;;6.60;2.97;;;;;;;14.85;59.99;99861.25;4288900;33;20116;-84
2023/06/01 03:02:41;;;;;;;7.57;3.58;;;;;;;14.88;60.00;99855.84;4289451;33;20108;-84
2023/06/01 03:05:07;;;;;;;5.82;3.03;;;;;;;14.91;60.00;99868.00;4289166;33;20132;-83
2023/06/01 03:07:33;;;;;;;6.75;3.10;;;;;;;15.06;60.01;99862.00;4289337;33;20128;-83
2023/06/01 03:09:58;;;;;;;6.00;3.20;;;;;;;15.11;60.02;99859.13;4276707;33;37136;-82
2023/06/01 03:12:23;;;;;;;9.07;3.10;;;;;;;15.15;60.01;99858.09;4276340;33;20200;-83
2023/06/01 03:14:49;;;;;;;8.57;3.50;;;;;;;15.08;60.01;99862.75;4289469;33;20153;-84
2023/06/01 03:17:14;;;;;;;7.57;3.00;;;;;;;15.24;60.03;99853.22;4290531;33;20108;-83
2023/06/01 03:19:40;;;;;;;7.75;3.10;;;;;;;15.12;60.02;99861.69;4290528;33;20152;-83
2023/06/01 03:22:06;;;;;;;5.75;2.72;;;;;;;15.22;60.02;99860.31;4289345;33;20119;-83
2023/06/01 03:24:32;;;;;;;7.85;3.85;;;;;;;15.29;60.02;99863.47;4290007;33;25549;-83
2023/06/01 03:26:57;;;;;;;6.07;3.05;;;;;;;15.29;60.02;99860.84;4290412;33;20108;-83
2023/06/01 03:29:23;;;;;;;7.93;4.68;;;;;;;15.36;60.03;99855.22;4289378;33;20146;-83
2023/06/01 03:31:48;;;;;;;4.87;3.33;;;;;;;15.45;60.03;99856.56;4289387;33;20169;-83
2023/06/01 03:34:13;;;;;;;5.75;3.58;;;;;;;15.50;60.04;99853.69;4277329;33;20112;-83
2023/06/01 03:36:39;;;;;;;11.60;3.00;;;;;;;15.53;60.03;99857.00;4288451;33;34301;-83
2023/06/01 03:39:08;;;;;;;5.85;3.28;;;;;;;15.45;60.03;99856.56;4288245;33;34960;-84
2023/06/01 03:41:34;;;;;;;8.90;3.42;;;;;;;15.57;60.05;99858.53;4289320;33;20097;-83
2023/06/01 03:44:00;;;;;;;4.65;2.60;;;;;;;15.70;60.04;99855.34;4289309;33;20116;-82
2023/06/01 03:46:25;;;;;;;9.05;3.35;;;;;;;15.82;60.05;99854.69;4276895;33;20457;-83
2023/06/01 03:48:51;;;;;;;7.93;3.40;;;;;;;15.78;60.05;99854.00;4276996;33;20104;-83
2023/06/01 03:51:17;;;;;;;8.50;3.03;;;;;;;15.85;60.05;99850.16;4276861;33;20144;-82
2023/06/01 03:53:42;;;;;;;6.93;2.67;;;;;;;15.86;60.06;99848.37;4289022;33;20385;-83
2023/06/01 03:56:07;;;;;;;6.82;3.20;;;;;;;15.97;60.06;99851.28;4264439;33;34627;-82
2023/06/01 03:58:33;;;;;;;6.90;3.47;;;;;;;16.04;60.07;99844.78;4289086;33;20175;-82
2023/06/01 04:01:00;;;;;;;6.40;3.08;;;;;;;16.14;60.07;99838.12;4277045;33;20108;-83
2023/06/01 04:03:26;;;;;;;5.43;2.62;;;;;;;16.24;60.08;99841.09;4277686;33;20172;-82
2023/06/01 04:05:58;;;;;;;6.45;2.55;;;;;;;16.73;60.10;99841.91;4276919;33;20152;-83
2023/06/01 04:08:23;;;;;;;8.32;2.90;;;;;;;16.56;60.10;99844.59;4288917;33;20187;-83
2023/06/01 04:10:49;;;;;;;4.80;2.87;;;;;;;16.76;60.10;99843.50;4288704;33;20097;-83
2023/06/01 04:13:14;;;;;;;8.48;2.95;;;;;;;16.62;60.10;99841.63;4276621;33;22601;-83
2023/06/01 04:15:40;;;;;;;4.70;2.72;;;;;;;16.76;60.10;99846.16;4277225;33;20734;-83
2023/06/01 04:18:06;;;;;;;5.37;3.00;;;;;;;16.95;60.11;99841.56;4288849;33;20370;-83
2023/06/01 04:20:32;;;;;;;8.93;2.75;;;;;;;17.09;60.13;99844.25;4288652;33;20085;-83
2023/06/01 04:22:57;;;;;;;5.70;2.87;;;;;;;17.07;60.11;99842.66;4289587;33;20144;-81
2023/06/01 04:25:23;;;;;;;9.20;3.00;;;;;;;17.34;60.13;99846.31;4276962;33;20159;-82
2023/06/01 04:27:51;;;;;;;4.62;2.65;;;;;;;17.39;60.14;99846.03;4276880;33;20092;-82
2023/06/01 04:30:16;;;;;;;6.43;2.50;;;;;;;17.56;60.15;99837.16;4288851;33;20085;-81
2023/06/01 04:32:44;;;;;;;6.03;2.62;;;;;;;17.71;60.16;99833.63;4288514;33;20094;-81
2023/06/01 04:35:09;;;;;;;4.62;2.47;;;;;;;18.02;60.17;99841.37;4288851;33;20162;-81
2023/06/01 04:37:35;;;;;;;7.57;2.42;;;;;;;18.05;60.17;99841.19;4288391;33;20100;-81
2023/06/01 04:40:06;;;;;;;6.95;2.58;;;;;;;18.45;60.19;99838.69;4289952;33;20379;-81
2023/06/01 04:42:31;;;;;;;4.07;2.55;;;;;;;18.46;60.20;99835.16;4288779;33;20127;-81
2023/06/01 04:44:58;;;;;;;7.43;2.92;;;;;;;18.36;60.19;99837.50;4289803;33;20100;-81
2023/06/01 04:47:23;;;;;;;6.00;3.25;;;;;;;18.38;60.20;99838.25;4288681;33;20152;-81
2023/06/01 04:49:49;;;;;;;7.62;2.90;;;;;;;18.60;60.20;99840.37;4288405;33;20093;-82
2023/06/01 04:52:14;;;;;;;5.72;2.55;;;;;;;18.55;60.20;99846.91;4276349;33;20159;-82
2023/06/01 04:54:39;;;;;;;6.10;2.40;;;;;;;18.64;60.21;99843.69;4288628;33;20114;-82
2023/06/01 04:57:08;;;;;;;4.57;2.10;;;;;;;18.78;60.22;99842.81;4276297;33;20463;-82
2023/06/01 04:59:34;;;;;;;5.00;2.25;;;;;;;18.85;60.21;99842.31;4288517;33;20111;-82
2023/06/01 05:01:59;;;;;;;9.52;3.03;;;;;;;19.09;60.23;99845.16;4276078;33;22593;-82
2023/06/01 05:04:25;;;;;;;6.25;2.42;;;;;;;19.19;60.23;99837.50;4288177;33;20104;-82
2023/06/01 05:06:50;;;;;;;8.73;2.92;;;;;;;19.28;60.24;99844.78;4275841;33;20836;-82
2023/06/01 05:09:17;;;;;;;6.57;2.70;;;;;;;19.39;60.25;99844.06;4288007;33;20089;-82
2023/06/01 05:11:43;;;;;;;5.40;2.67;;;;;;;19.77;60.27;99838.88;4288221;33;20204;-82
2023/06/01 05:14:08;;;;;;;8.57;3.08;;;;;;;19.92;60.26;99835.19;4287600;33;21306;-82
2023/06/01 05:16:34;;;;;;;4.82;2.35;;;;;;;20.11;60.28;99840.91;4287957;33;20585;-82
2023/06/01 05:18:59;;;;;;;7.82;2.15;;;;;;;20.12;60.28;99839.09;4287943;33;20412;-81
2023/06/01 05:21:25;;;;;;;5.78;2.17;;;;;;;20.16;60.29;99840.56;4289120;33;20121;-82
2023/06/01 05:23:50;;;;;;;8.07;2.33;;;;;;;20.40;60.30;99836.22;4287948;33;20209;-82
2023/06/01 05:26:15;;;;;;;6.40;2.37;;;;;;;20.32;60.30;99840.31;4275228;33;30269;-82
2023/06/01 05:28:41;;;;;;;5.45;3.15;;;;;;;20.72;60.31;99848.94;4287296;33;21054;-81
2023/06/01 05:31:06;;;;;;;3.80;2.25;;;;;;;20.75;60.31;99843.41;4289077;33;20491;-81
2023/06/01 05:33:32;;;;;;;8.25;2.75;;;;;;;21.18;60.34;99838.47;4275057;33;20112;-80
2023/06/01 05:35:57;;;;;;;8.02;2.80;;;;;;;21.26;60.35;99840.56;4276979;33;20476;-82
2023/06/01 05:38:23;;;;;;;6.35;2.85;;;;;;;21.36;60.35;99839.78;4277197;33;20408;-81
2023/06/01 05:40:48;;;;;;;9.05;4.32;;;;;;;21.48;60.35;99832.69;4277496;33;20737;-82
2023/06/01 05:43:14;;;;;;;7.18;2.85;;;;;;;21.66;60.36;99828.66;4290407;33;20100;-80
2023/06/01 05:45:39;;;;;;;6.37;2.60;;;;;;;21.69;60.36;99825.75;4277437;33;20104;-81
2023/06/01 05:48:05;;;;;;;6.62;2.78;;;;;;;22.01;60.37;99827.75;4288875;33;23961;-81
2023/06/01 05:50:30;;;;;;;5.65;2.42;;;;;;;22.02;60.39;99827.63;4289373;33;20490;-81
2023/06/01 05:52:55;;;;;;;2.78;1.90;;;;;;;22.14;60.39;99831.13;4277231;33;20120;-81
2023/06/01 05:55:21;;;;;;;6.25;2.37;;;;;;;22.45;60.40;99831.34;4289666;33;20104;-81
2023/06/01 05:57:46;;;;;;;8.35;2.40;;;;;;;22.48;60.41;99829.31;4288781;33;27020;-81
2023/06/01 06:00:13;;;;;;;5.40;2.35;;;;;;;22.57;60.41;99825.91;4289603;33;20496;-81
2023/06/01 06:02:39;;;;;;;5.78;2.35;;;;;;;22.76;60.42;99827.94;4289590;33;20100;-81
2023/06/01 06:05:05;;;;;;;6.45;2.22;;;;;;;22.71;60.41;99822.12;4290801;33;20119;-81
2023/06/01 06:07:31;;;;;;;5.40;2.22;;;;;;;22.74;60.43;99824.56;4290731;33;20217;-81
2023/06/01 06:09:56;;;;;;;5.37;2.60;;;;;;;22.76;60.42;99825.28;4289664;33;20226;-81
2023/06/01 06:12:22;;;;;;;4.82;2.20;;;;;;;23.10;60.43;99823.38;4288447;33;34116;-81
2023/06/01 06:14:48;;;;;;;10.27;2.58;;;;;;;23.06;60.44;99821.09;4289601;33;20128;-81
2023/06/01 06:17:14;;;;;;;8.02;2.95;;;;;;;23.20;60.45;99826.13;4290670;33;20081;-81
2023/06/01 06:19:39;;;;;;;10.07;4.12;;;;;;;23.46;60.46;99830.09;4277560;33;20152;-81
2023/06/01 06:22:05;;;;;;;6.55;3.62;;;;;;;23.60;60.47;99820.13;4289457;33;20104;-81
2023/06/01 06:24:30;;;;;;;4.80;1.95;;;;;;;23.74;60.48;99825.97;4289755;33;34689;-81
2023/06/01 06:26:56;;;;;;;7.78;2.17;;;;;;;23.85;60.48;99823.22;4290739;33;20109;-81
2023/06/01 06:29:21;;;;;;;9.50;2.60;;;;;;;23.90;60.48;99825.50;4290607;33;20125;-81
2023/06/01 06:31:46;;;;;;;6.40;2.28;;;;;;;24.14;60.50;99828.69;4289719;33;20154;-81
2023/06/01 06:34:12;;;;;;;4.57;1.90;;;;;;;24.18;60.49;99823.94;4289626;33;20120;-81
2023/06/01 06:36:38;;;;;;;8.65;2.72;;;;;;;24.30;60.51;99824.72;4277702;33;20084;-81
2023/06/01 06:39:03;;;;;;;3.67;2.20;;;;;;;24.46;60.52;99817.06;4290796;33;20217;-81
2023/06/01 06:41:29;;;;;;;7.62;2.60;;;;;;;24.60;60.52;99822.00;4289316;33;20119;-81
2023/06/01 06:43:54;;;;;;;5.22;2.33;;;;;;;24.77;60.53;99823.16;4289571;33;20151;-81
2023/06/01 06:46:19;;;;;;;8.80;2.30;;;;;;;25.04;60.54;99819.84;4288539;33;20084;-81
2023/06/01 06:48:45;;;;;;;7.15;2.10;;;;;;;25.26;60.55;99819.56;4290319;33;21676;-81
2023/06/01 06:51:10;;;;;;;7.87;2.47;;;;;;;25.50;60.56;99807.62;4289469;33;20140;-80
2023/06/01 06:53:36;;;;;;;6.97;2.22;;;;;;;25.62;60.58;99807.34;4276763;33;36060;-81
2023/06/01 06:56:01;;;;;;;5.30;2.67;;;;;;;25.79;60.58;99812.91;4290808;33;20120;-81
2023/06/01 06:58:27;;;;;;;6.10;2.50;;;;;;;25.90;60.58;99808.25;4289285;33;20147;-81
2023/06/01 07:00:53;;;;;;;8.13;3.17;;;;;;;25.89;60.59;99803.06;4277737;33;20120;-81
2023/06/01 07:03:18;;;;;;;6.47;3.00;;;;;;;25.93;60.59;99807.97;4289617;33;20485;-81
2023/06/01 07:05:45;;;;;;;7.78;3.95;;;;;;;25.98;60.59;99805.69;4290596;33;20105;-81
2023/06/01 07:08:10;;;;;;;7.57;2.70;;;;;;;26.24;60.60;99805.03;4290708;33;20166;-81
2023/06/01 07:10:36;;;;;;;4.15;2.60;;;;;;;26.35;60.61;99815.56;4277339;33;20528;-81
2023/06/01 07:13:01;;;;;;;5.93;2.25;;;;;;;26.39;60.61;99813.41;4276956;33;21693;-81
2023/06/01 07:15:27;;;;;;;6.43;2.53;;;;;;;26.49;60.62;99807.03;4289094;33;20129;-81
2023/06/01 07:17:52;;;;;;;9.63;2.55;;;;;;;26.64;60.63;99807.38;4277319;33;20126;-82
2023/06/01 07:20:17;;;;;;;6.53;2.45;;;;;;;26.82;60.64;99813.56;4276791;33;30232;-82
2023/06/01 07:22:43;;;;;;;5.97;2.78;;;;;;;26.95;60.65;99813.19;4277043;33;20178;-81
2023/06/01 07:25:09;;;;;;;13.00;3.25;;;;;;;27.08;60.65;99805.69;4289836;33;31393;-81
2023/06/01 07:27:35;;;;;;;8.30;2.87;;;;;;;26.98;60.64;99806.72;4289178;33;20120;-82
2023/06/01 07:30:04;;;;;;;6.87;2.40;;;;;;;27.14;60.66;99806.88;4289371;33;20112;-81
2023/06/01 07:32:29;;;;;;;6.60;2.15;;;;;;;27.15;60.66;99801.38;4277298;33;20118;-82
2023/06/01 07:34:57;;;;;;;6.05;2.42;;;;;;;27.19;60.66;99800.06;4289192;33;20077;-80
2023/06/01 07:37:23;;;;;;;6.62;2.10;;;;;;;27.37;60.67;99805.41;4289238;33;20100;-82
2023/06/01 07:39:49;;;;;;;5.40;2.25;;;;;;;27.47;60.68;99800.81;4289292;33;20147;-81
2023/06/01 07:42:15;;;;;;;4.22;1.90;;;;;;;27.47;60.67;99795.47;4288861;33;20409;-81
2023/06/01 07:44:40;;;;;;;5.60;2.50;;;;;;;27.69;60.68;99791.47;4289295;33;20666;-81
2023/06/01 07:47:06;;;;;;;4.53;2.15;;;;;;;27.86;60.69;99788.88;4289196;33;20104;-82
2023/06/01 07:49:31;;;;;;;6.60;2.12;;;;;;;27.89;60.69;99789.41;4289241;33;20090;-81
2023/06/01 07:51:58;;;;;;;8.07;2.25;;;;;;;27.80;60.68;99791.19;4288979;33;20121;-81
2023/06/01 07:54:24;;;;;;;7.05;1.92;;;;;;;27.90;60.70;99796.44;4289146;33;20088;-82
2023/06/01 07:56:49;;;;;;;3.22;1.92;;;;;;;28.18;60.71;99793.56;4276681;33;20383;-81
2023/06/01 07:59:15;;;;;;;6.62;2.17;;;;;;;28.21;60.71;99796.75;4288835;33;20109;-81
2023/06/01 08:01:41;;;;;;;3.58;2.00;;;;;;;28.41;60.72;99798.22;4277177;33;20201;-82
2023/06/01 08:04:06;;;;;;;5.35;2.42;;;;;;;28.43;60.72;99790.84;4265061;33;20194;-82
2023/06/01 08:06:35;;;;;;;5.55;2.35;;;;;;;28.43;60.72;99792.69;4288865;33;20131;-81
2023/06/01 08:09:01;;;;;;;8.05;2.37;;;;;;;28.44;60.71;99794.38;4289020;33;20104;-81
2023/06/01 08:11:26;;;;;;;7.85;2.25;;;;;;;28.69;60.74;99792.59;4290271;33;20123;-81
2023/06/01 08:13:52;;;;;;;4.53;2.10;;;;;;;28.56;60.73;99793.06;4288436;33;24998;-82
2023/06/01 08:16:17;;;;;;;7.53;2.40;;;;;;;28.77;60.75;99795.28;4288463;33;20144;-80
2023/06/01 08:18:43;;;;;;;5.37;2.30;;;;;;;28.93;60.75;99787.31;4290015;33;20141;-81
2023/06/01 08:21:09;;;;;;;6.10;2.25;;;;;;;29.19;60.76;99787.16;4289923;33;20471;-80
2023/06/01 08:23:35;;;;;;;6.55;2.28;;;;;;;29.05;60.75;99779.75;4288869;33;20084;-81
2023/06/01 08:26:00;;;;;;;5.90;2.83;;;;;;;29.18;60.76;99779.28;4276845;33;20577;-80
2023/06/01 08:28:26;;;;;;;5.68;2.90;;;;;;;29.37;60.77;99778.09;4290115;33;20149;-81
2023/06/01 08:30:51;;;;;;;7.90;2.80;;;;;;;29.48;60.77;99775.09;4290030;33;20149;-81
2023/06/01 08:33:17;;;;;;;8.93;2.60;;;;;;;29.45;60.78;99775.44;4276876;33;20088;-81
2023/06/01 08:35:42;;;;;;;4.62;2.30;;;;;;;29.60;60.78;99774.59;4288825;33;20101;-81
2023/06/01 08:38:08;;;;;;;7.60;2.15;;;;;;;29.66;60.79;99772.22;4276630;33;20109;-81
2023/06/01 08:40:33;;;;;;;6.90;2.40;;;;;;;29.87;60.79;99775.19;4288589;33;20517;-81
2023/06/01 08:43:04;;;;;;;7.57;2.45;;;;;;;30.19;60.80;99776.94;4289835;33;20140;-80
2023/06/01 08:45:30;;;;;;;8.32;2.47;;;;;;;30.35;60.83;99766.13;4276779;33;20104;-81
2023/06/01 08:47:55;;;;;;;5.70;2.10;;;;;;;30.55;60.82;99772.72;4288650;33;20148;-81
2023/06/01 08:50:21;;;;;;;7.90;2.60;;;;;;;30.56;60.83;99765.50;4276719;33;20182;-81
2023/06/01 08:52:46;;;;;;;6.43;2.08;;;;;;;30.37;60.82;99774.84;4276543;33;20089;-81
2023/06/01 08:55:12;;;;;;;5.15;2.97;;;;;;;30.32;60.82;99763.78;4288209;33;20169;-81
2023/06/01 08:57:40;;;;;;;8.75;3.72;;;;;;;30.61;60.84;99767.69;4276467;33;20197;-81
2023/06/01 09:00:07;;;;;;;6.18;2.30;;;;;;;30.65;60.83;99764.47;4276584;33;20488;-81
2023/06/01 09:02:32;;;;;;;5.45;2.40;;;;;;;30.54;60.83;99760.31;4276579;33;20147;-81
2023/06/01 09:04:58;;;;;;;5.12;2.50;;;;;;;30.74;60.84;99757.16;4276298;33;20145;-82
2023/06/01 09:07:24;;;;;;;5.12;2.70;;;;;;;31.17;60.87;99747.63;4276476;33;20109;-81
2023/06/01 09:09:50;;;;;;;6.28;2.62;;;;;;;31.38;60.88;99753.16;4277050;33;20111;-81
2023/06/01 09:12:21;;;;;;;8.52;2.75;;;;;;;31.42;60.87;99754.44;4290031;33;20196;-81
2023/06/01 09:14:47;;;;;;;5.47;2.80;;;;;;;31.36;60.87;99746.28;4291228;33;20146;-81
2023/06/01 09:17:13;;;;;;;5.82;2.47;;;;;;;31.48;60.88;99744.00;4277873;33;20097;-82
2023/06/01 09:19:45;;;;;;;6.87;2.60;;;;;;;31.40;60.88;99747.56;4266006;33;20119;-82
2023/06/01 09:22:11;;;;;;;7.35;2.80;;;;;;;31.40;60.88;99747.56;4289861;33;20148;-82
2023/06/01 09:24:36;;;;;;;5.10;2.90;;;;;;;31.18;60.86;99743.91;4278197;33;20685;-82
2023/06/01 09:27:02;;;;;;;8.65;2.85;;;;;;;31.26;60.87;99743.03;4290896;33;21125;-82
2023/06/01 09:29:28;;;;;;;9.57;2.95;;;;;;;31.40;60.88;99743.03;4278170;33;20149;-82
2023/06/01 09:31:54;;;;;;;5.30;2.95;;;;;;;31.55;60.88;99742.22;4278090;33;20490;-82
2023/06/01 09:34:20;;;;;;;5.72;2.67;;;;;;;31.79;60.89;99738.47;4289963;33;20172;-82
2023/06/01 09:36:46;;;;;;;8.05;2.70;;;;;;;31.45;60.88;99737.09;4289972;33;20521;-82
2023/06/01 09:39:16;;;;;;;7.07;3.12;;;;;;;31.52;60.88;99743.44;4289967;33;20153;-82
2023/06/01 09:41:54;;;;;;;3.75;2.62;;;;;;;31.68;60.89;99734.31;4289978;33;20080;-81
2023/06/01 09:44:33;;;;;;;6.32;2.78;;;;;;;32.00;60.91;99733.16;4290042;33;20177;-81
2023/06/01 09:47:03;;;;;;;3.75;2.90;;;;;;;32.03;60.91;99741.69;4289941;33;20243;-81
2023/06/01 09:49:30;;;;;;;5.78;2.95;;;;;;;32.11;60.90;99737.22;4289850;33;20606;-81
2023/06/01 09:52:04;;;;;;;7.15;3.20;;;;;;;32.24;60.91;99745.47;4289898;33;20160;-81
2023/06/01 09:54:34;;;;;;;4.10;2.72;;;;;;;32.13;60.91;99740.56;4291025;33;20553;-81
2023/06/01 09:57:01;;;;;;;8.15;2.75;;;;;;;32.02;60.90;99734.63;4289784;33;20164;-82
2023/06/01 09:59:30;;;;;;;5.72;2.90;;;;;;;32.34;60.91;99730.69;4278053;33;20171;-82
2023/06/01 10:01:57;;;;;;;5.25;2.72;;;;;;;32.36;60.92;99727.81;4289677;33;20952;-81
2023/06/01 10:04:26;;;;;;;4.45;2.50;;;;;;;32.06;60.91;99737.78;4277891;33;20104;-81
2023/06/01 10:06:55;;;;;;;3.75;2.37;;;;;;;32.06;60.91;99722.47;4277826;33;20130;-81
2023/06/01 10:09:22;;;;;;;8.07;2.55;;;;;;;32.11;60.91;99732.66;4277708;33;20096;-81
2023/06/01 10:11:48;;;;;;;5.07;2.92;;;;;;;32.32;60.92;99723.81;4277716;33;20394;-81
2023/06/01 10:14:14;;;;;;;6.70;3.03;;;;;;;32.48;60.92;99729.00;4277776;33;20094;-81
2023/06/01 10:16:40;;;;;;;5.75;2.90;;;;;;;32.62;60.94;99717.31;4265770;33;20176;-82
2023/06/01 10:19:07;;;;;;;7.25;3.17;;;;;;;32.43;60.92;99730.59;4289759;33;20081;-81
2023/06/01 10:21:33;;;;;;;6.28;3.08;;;;;;;32.42;60.92;99719.00;4277467;33;20146;-82
2023/06/01 10:23:58;;;;;;;9.70;3.22;;;;;;;32.53;60.94;99710.38;4289515;33;20269;-82
2023/06/01 10:26:25;;;;;;;5.75;3.45;;;;;;;32.81;60.95;99707.78;4289621;33;20171;-81
2023/06/01 10:28:50;;;;;;;10.00;3.20;;;;;;;32.49;60.93;99708.28;4289564;33;20576;-81
2023/06/01 10:31:35;;;;;;;5.07;2.87;;;;;;;32.39;60.93;99713.13;4277741;33;20151;-81
2023/06/01 10:34:01;;;;;;;7.03;3.15;;;;;;;32.38;60.93;99701.50;4290956;33;20097;-81
2023/06/01 10:36:52;;;;;;;7.18;3.40;;;;;;;32.48;60.93;99699.34;4277683;33;20116;-81
2023/06/01 10:39:21;;;;;;;8.32;3.33;;;;;;;32.57;60.93;99695.50;4275304;33;20492;-81
2023/06/01 10:41:47;;;;;;;12.18;4.00;;;;;;;32.51;60.94;99698.97;4289794;33;20135;-81
2023/06/01 10:44:41;;;;;;;5.20;3.30;;;;;;;32.38;60.93;99690.72;4288920;33;36002;-81
2023/06/01 10:47:10;;;;;;;6.68;3.62;;;;;;;32.55;60.93;99694.03;4289772;33;20163;-81
2023/06/01 10:49:51;;;;;;;5.32;3.37;;;;;;;32.80;60.94;99692.62;4289511;33;20159;-82
2023/06/01 10:52:36;;;;;;;8.05;3.15;;;;;;;32.79;60.95;99687.41;4289380;33;20085;-81
2023/06/01 10:55:11;;;;;;;4.85;3.12;;;;;;;32.75;60.95;99688.81;4289504;33;20134;-81
2023/06/01 10:57:37;;;;;;;5.62;3.40;;;;;;;32.98;60.96;99684.09;4290744;33;20100;-82
2023/06/01 11:00:38;;;;;;;4.37;3.30;;;;;;;32.77;60.95;99678.69;4290806;33;20188;-81
2023/06/01 11:03:04;;;;;;;6.82;3.10;;;;;;;32.90;60.96;99671.59;4274348;33;20098;-81
2023/06/01 11:05:49;;;;;;;4.75;2.92;;;;;;;32.78;60.94;99672.25;4277671;33;20105;-81
2023/06/01 11:08:17;;;;;;;6.57;2.95;;;;;;;32.86;60.95;99675.66;4289601;33;20199;-82
2023/06/01 11:10:51;;;;;;;5.75;3.05;;;;;;;33.02;60.96;99671.03;4290743;33;20479;-82
2023/06/01 11:13:31;;;;;;;6.82;2.80;;;;;;;33.17;60.97;99663.69;4289340;33;20160;-82
2023/06/01 11:16:27;;;;;;;7.78;3.10;;;;;;;33.08;60.96;99662.16;4277553;33;20109;-81
2023/06/01 11:18:59;;;;;;;8.98;3.10;;;;;;;33.12;60.96;99663.41;4290492;33;20171;-80
2023/06/01 11:21:25;;;;;;;9.55;3.45;;;;;;;33.33;60.98;99649.91;4289768;33;20085;-82
2023/06/01 11:23:51;;;;;;;5.40;3.25;;;;;;;33.26;60.97;99655.22;4289402;33;20498;-81
2023/06/01 11:26:21;;;;;;;4.60;3.25;;;;;;;33.20;60.96;99653.34;4277544;33;20221;-81
2023/06/01 11:28:46;;;;;;;;;;;;;;;33.30;60.97;99649.44;4277735;33;20446;-81
2023/06/01 11:31:13;;;;;;;10.15;3.55;;;;;;;33.07;60.95;99649.69;4289359;33;19990;-81
2023/06/01 11:33:40;;;;;;;6.07;3.10;;;;;;;32.28;60.93;99644.44;4276686;33;20462;-81
2023/06/01 11:36:06;;;;;;;3.70;3.08;;;;;;;32.61;60.94;99639.34;4277276;33;20109;-81